X  Sluiten METAR luchtvaart weer gegevens      EHAM Amsterdam Airport Schiphol
Temperatuur
59°F Temperatuur
54°F Dauwpunt
82% Vochtigheid



Wind
14 MPH
23 KM/U
6 M/S
12 KTS



190°
Z
Huidig weer

Grotendeels bewolkt Grotendeels bewolkt
Luchtdruk 1013.92 (hPa) - 29.94 (inHg)
Zicht 6.2 (mijl) - 10 (km)
Vliegveld
Vliegveld code EHAM

Locatie : Amsterdam Airport Schiphol
Afstand: 26 (mi)

Metar:
EHAM 050425Z 19012KT 9999 BKN026 15/12 Q1014 NOSIG

Tijd: 05-10-2022 06:25 CEST